Time;durP1;ratioP1;P1;durP2;ratioP2;P2;SDS_P1;SDS_P2;PMS_P1;PMS_P2;Temp;Humidity;BMP_temperature;BMP_pressure;BME280_temperature;BME280_humidity;BME280_pressure;Samples;Min_cycle;Max_cycle;Signal;HPM_P1;HPM_P2
2023/02/10 00:01:32;;;;;;;29.88;20.42;;;;;;;;;;10017716;28;20065;-74
2023/02/10 00:06:26;;;;;;;26.73;19.17;;;;;;;;;;10022660;28;20703;-74
2023/02/10 00:11:56;;;;;;;24.65;19.77;;;;;;;;;;10014859;28;20050;-74
2023/02/10 00:16:38;;;;;;;23.35;16.55;;;;;;;;;;10014444;28;20050;-74
2023/02/10 00:21:32;;;;;;;26.50;20.30;;;;;;;;;;10012100;28;20045;-73
2023/02/10 00:26:26;;;;;;;25.67;17.70;;;;;;;;;;10011181;28;20069;-74
2023/02/10 00:31:21;;;;;;;25.60;18.85;;;;;;;;;;10011499;28;20043;-74
2023/02/10 00:36:15;;;;;;;22.35;16.73;;;;;;;;;;10022534;28;20058;-75
2023/02/10 00:41:16;;;;;;;24.38;18.95;;;;;;;;;;10008754;28;20077;-74
2023/02/10 00:46:13;;;;;;;24.30;19.38;;;;;;;;;;10009009;28;20150;-74
2023/02/10 00:51:07;;;;;;;24.40;17.83;;;;;;;;;;10022809;28;20626;-74
2023/02/10 00:56:00;;;;;;;26.27;16.95;;;;;;;;;;10006326;28;20039;-74
2023/02/10 01:00:54;;;;;;;22.95;18.45;;;;;;;;;;10008469;28;20049;-74
2023/02/10 01:05:47;;;;;;;28.95;18.98;;;;;;;;;;10008058;28;20053;-74
2023/02/10 01:10:41;;;;;;;22.38;16.55;;;;;;;;;;10006351;28;20038;-74
2023/02/10 01:15:35;;;;;;;25.50;19.80;;;;;;;;;;10007063;28;20077;-74
2023/02/10 01:20:28;;;;;;;21.38;16.73;;;;;;;;;;10001835;28;20066;-74
2023/02/10 01:25:21;;;;;;;19.88;16.23;;;;;;;;;;10015508;28;20049;-74
2023/02/10 01:30:18;;;;;;;23.83;17.20;;;;;;;;;;10026347;28;20426;-74
2023/02/10 01:35:11;;;;;;;23.70;16.90;;;;;;;;;;10027576;28;20056;-74
2023/02/10 01:40:08;;;;;;;20.00;15.82;;;;;;;;;;10026798;28;20057;-74
2023/02/10 01:45:25;;;;;;;21.38;14.88;;;;;;;;;;10026805;28;20144;-74
2023/02/10 01:50:22;;;;;;;22.45;19.05;;;;;;;;;;10010166;28;20049;-74
2023/02/10 01:55:19;;;;;;;28.42;19.98;;;;;;;;;;10028110;28;20057;-74
2023/02/10 02:00:13;;;;;;;28.48;18.67;;;;;;;;;;10026665;28;20038;-74
2023/02/10 02:05:21;;;;;;;26.67;18.88;;;;;;;;;;10025797;28;20073;-75
2023/02/10 02:10:15;;;;;;;22.98;17.95;;;;;;;;;;10018569;28;20048;-73
2023/02/10 02:15:27;;;;;;;23.48;17.50;;;;;;;;;;10026451;28;20072;-74
2023/02/10 02:20:40;;;;;;;26.65;20.55;;;;;;;;;;10008921;28;20046;-74
2023/02/10 02:25:33;;;;;;;28.67;19.02;;;;;;;;;;10027145;28;20034;-74
2023/02/10 02:30:52;;;;;;;25.88;19.27;;;;;;;;;;10025444;28;20057;-74
2023/02/10 02:35:54;;;;;;;27.45;19.80;;;;;;;;;;10008017;28;20465;-74
2023/02/10 02:40:48;;;;;;;23.70;18.77;;;;;;;;;;10024997;28;20054;-74
2023/02/10 02:45:55;;;;;;;26.02;19.33;;;;;;;;;;10026110;28;20586;-73
2023/02/10 02:50:57;;;;;;;27.17;17.92;;;;;;;;;;9999593;28;20046;-74
2023/02/10 02:56:09;;;;;;;28.00;17.38;;;;;;;;;;10025466;28;20073;-73
2023/02/10 03:01:06;;;;;;;19.23;15.38;;;;;;;;;;10020503;28;20046;-73
2023/02/10 03:06:01;;;;;;;22.95;15.90;;;;;;;;;;10025690;28;20406;-75
2023/02/10 03:10:53;;;;;;;22.77;18.15;;;;;;;;;;10044800;28;20094;-74
2023/02/10 03:15:47;;;;;;;22.77;17.42;;;;;;;;;;10028794;28;20060;-74
2023/02/10 03:20:41;;;;;;;26.38;18.17;;;;;;;;;;10023760;28;20058;-73
2023/02/10 03:25:35;;;;;;;23.15;16.75;;;;;;;;;;10025342;28;20062;-73
2023/02/10 03:30:28;;;;;;;22.20;17.05;;;;;;;;;;10024938;28;20483;-73
2023/02/10 03:35:21;;;;;;;24.63;18.15;;;;;;;;;;10025408;28;20088;-74
2023/02/10 03:40:15;;;;;;;20.83;14.75;;;;;;;;;;10025469;28;20050;-74
2023/02/10 03:45:09;;;;;;;23.38;16.63;;;;;;;;;;10025260;28;20116;-74
2023/02/10 03:50:03;;;;;;;25.33;17.83;;;;;;;;;;10025533;28;20490;-74
2023/02/10 03:54:56;;;;;;;21.88;17.80;;;;;;;;;;10032025;28;20073;-74
2023/02/10 03:59:49;;;;;;;19.60;17.42;;;;;;;;;;10031519;28;20088;-74
2023/02/10 04:04:43;;;;;;;22.08;18.33;;;;;;;;;;10031479;28;20502;-74
2023/02/10 04:09:37;;;;;;;27.35;18.65;;;;;;;;;;10031282;28;20042;-74
2023/02/10 04:14:30;;;;;;;28.08;20.33;;;;;;;;;;10025531;28;20446;-74
2023/02/10 04:19:23;;;;;;;22.80;17.95;;;;;;;;;;10031326;28;20049;-74
2023/02/10 04:24:17;;;;;;;22.42;17.70;;;;;;;;;;10030749;28;20058;-74
2023/02/10 04:29:09;;;;;;;25.98;18.77;;;;;;;;;;10030602;28;20046;-74
2023/02/10 04:34:02;;;;;;;21.17;17.88;;;;;;;;;;10029189;28;20103;-74
2023/02/10 04:38:56;;;;;;;24.10;18.08;;;;;;;;;;10036907;28;20136;-73
2023/02/10 04:43:49;;;;;;;23.83;16.52;;;;;;;;;;10030152;28;20073;-74
2023/02/10 04:48:43;;;;;;;24.67;16.02;;;;;;;;;;10029863;28;20093;-74
2023/02/10 04:53:37;;;;;;;21.52;15.52;;;;;;;;;;10029531;28;20050;-73
2023/02/10 04:58:30;;;;;;;20.15;15.77;;;;;;;;;;10029768;28;20572;-74
2023/02/10 05:03:24;;;;;;;23.60;15.98;;;;;;;;;;10029279;28;20045;-74
2023/02/10 05:08:23;;;;;;;20.75;14.88;;;;;;;;;;10029756;28;20054;-74
2023/02/10 05:13:17;;;;;;;22.05;14.80;;;;;;;;;;10028938;28;20077;-74
2023/02/10 05:18:09;;;;;;;20.80;15.13;;;;;;;;;;10016584;28;20054;-74
2023/02/10 05:23:04;;;;;;;20.40;17.23;;;;;;;;;;10029114;28;20053;-73
2023/02/10 05:27:57;;;;;;;21.20;15.65;;;;;;;;;;10028444;28;20049;-74
2023/02/10 05:32:52;;;;;;;21.10;16.40;;;;;;;;;;10027932;28;20497;-75
2023/02/10 05:37:45;;;;;;;21.77;16.30;;;;;;;;;;10027804;28;20053;-75
2023/02/10 05:42:38;;;;;;;21.33;17.42;;;;;;;;;;10028252;28;20069;-75
2023/02/10 05:47:31;;;;;;;21.58;16.27;;;;;;;;;;10027727;28;20058;-75
2023/02/10 05:52:25;;;;;;;22.25;15.85;;;;;;;;;;10017685;28;20065;-75
2023/02/10 05:57:18;;;;;;;22.52;16.38;;;;;;;;;;10027342;28;20053;-75
2023/02/10 06:02:12;;;;;;;24.17;17.38;;;;;;;;;;10027367;28;20379;-75
2023/02/10 06:07:06;;;;;;;21.55;16.58;;;;;;;;;;10027436;28;20057;-71
2023/02/10 06:12:01;;;;;;;22.55;17.73;;;;;;;;;;10026953;28;20046;-74
2023/02/10 06:16:54;;;;;;;25.10;15.23;;;;;;;;;;10025938;28;20477;-74
2023/02/10 06:21:47;;;;;;;23.95;16.95;;;;;;;;;;10026666;28;20077;-75
2023/02/10 06:26:40;;;;;;;22.00;16.95;;;;;;;;;;10024698;28;20085;-74
2023/02/10 06:31:34;;;;;;;24.05;16.58;;;;;;;;;;10026367;28;20149;-74
2023/02/10 06:36:27;;;;;;;33.22;17.38;;;;;;;;;;10027054;28;20053;-74
2023/02/10 06:41:20;;;;;;;22.77;16.33;;;;;;;;;;10025996;28;20133;-73
2023/02/10 06:46:15;;;;;;;25.17;19.33;;;;;;;;;;10026288;28;20053;-72
2023/02/10 06:51:08;;;;;;;25.42;17.25;;;;;;;;;;10015543;28;20125;-73
2023/02/10 06:56:02;;;;;;;22.63;17.50;;;;;;;;;;10009578;28;20058;-73
2023/02/10 07:00:58;;;;;;;25.60;20.02;;;;;;;;;;10006119;28;20511;-79
2023/02/10 07:05:51;;;;;;;29.25;20.13;;;;;;;;;;10012046;28;20057;-69
2023/02/10 07:10:44;;;;;;;32.00;20.17;;;;;;;;;;10013162;28;20422;-70
2023/02/10 07:15:38;;;;;;;24.33;18.38;;;;;;;;;;10001556;28;20061;-71
2023/02/10 07:20:32;;;;;;;25.45;17.88;;;;;;;;;;10014445;28;20045;-77
2023/02/10 07:25:25;;;;;;;30.48;16.13;;;;;;;;;;10001734;28;20548;-79
2023/02/10 07:30:20;;;;;;;24.52;16.13;;;;;;;;;;10006087;28;20068;-76
2023/02/10 07:35:13;;;;;;;26.48;16.15;;;;;;;;;;10015020;28;20387;-76
2023/02/10 07:40:08;;;;;;;18.13;14.43;;;;;;;;;;10015054;28;20041;-78
2023/02/10 07:45:03;;;;;;;22.73;15.88;;;;;;;;;;10031207;28;20554;-78
2023/02/10 07:49:57;;;;;;;21.17;15.45;;;;;;;;;;10020455;28;20092;-74
2023/02/10 07:54:51;;;;;;;18.52;15.35;;;;;;;;;;10006755;28;20046;-70
2023/02/10 07:59:44;;;;;;;40.13;25.40;;;;;;;;;;10005960;28;20050;-70
2023/02/10 08:04:38;;;;;;;37.78;20.70;;;;;;;;;;10013523;28;20045;-71
2023/02/10 08:09:31;;;;;;;30.88;15.90;;;;;;;;;;10031166;28;20054;-71
2023/02/10 08:14:26;;;;;;;25.50;16.35;;;;;;;;;;10013586;28;20515;-74
2023/02/10 08:19:19;;;;;;;23.23;17.42;;;;;;;;;;10024240;28;20054;-71
2023/02/10 08:24:13;;;;;;;30.25;17.55;;;;;;;;;;10027331;28;20525;-73
2023/02/10 08:29:06;;;;;;;24.05;16.27;;;;;;;;;;10009818;28;20046;-71
2023/02/10 08:34:00;;;;;;;27.77;16.55;;;;;;;;;;10014665;28;20100;-73
2023/02/10 08:38:53;;;;;;;25.38;17.00;;;;;;;;;;10027351;28;20053;-72
2023/02/10 08:43:46;;;;;;;20.42;15.65;;;;;;;;;;10027993;28;20054;-73
2023/02/10 08:48:41;;;;;;;23.50;17.10;;;;;;;;;;10029097;28;20050;-73
2023/02/10 08:53:34;;;;;;;29.13;15.73;;;;;;;;;;10028616;28;20466;-73
2023/02/10 08:58:27;;;;;;;22.58;16.23;;;;;;;;;;10028690;28;20446;-72
2023/02/10 09:03:21;;;;;;;25.77;16.45;;;;;;;;;;10018557;28;20132;-72
2023/02/10 09:08:16;;;;;;;20.23;15.70;;;;;;;;;;10028109;28;20056;-71
2023/02/10 09:13:09;;;;;;;22.60;17.05;;;;;;;;;;10023269;28;20477;-69
2023/02/10 09:18:04;;;;;;;21.65;16.70;;;;;;;;;;10013994;28;20111;-69
2023/02/10 09:22:57;;;;;;;25.58;17.40;;;;;;;;;;10021627;28;20533;-69
2023/02/10 09:27:54;;;;;;;20.20;15.63;;;;;;;;;;10021640;28;20111;-69
2023/02/10 09:32:47;;;;;;;23.08;14.93;;;;;;;;;;10026673;28;20052;-70
2023/02/10 09:37:41;;;;;;;24.38;16.60;;;;;;;;;;10017615;28;20133;-69
2023/02/10 09:42:54;;;;;;;22.63;16.08;;;;;;;;;;10027332;28;20081;-68
2023/02/10 09:47:50;;;;;;;23.42;17.63;;;;;;;;;;10026416;28;20066;-69
2023/02/10 09:52:53;;;;;;;26.40;19.90;;;;;;;;;;10019156;28;20061;-71
2023/02/10 09:57:51;;;;;;;32.65;19.17;;;;;;;;;;10025634;28;20038;-70
2023/02/10 10:02:51;;;;;;;31.13;17.58;;;;;;;;;;10024680;28;20120;-70
2023/02/10 10:07:49;;;;;;;40.67;29.05;;;;;;;;;;10025784;28;20049;-70
2023/02/10 10:12:44;;;;;;;24.48;17.45;;;;;;;;;;10023593;28;20053;-70
2023/02/10 10:17:46;;;;;;;20.70;16.13;;;;;;;;;;10025389;28;20045;-70
2023/02/10 10:23:01;;;;;;;19.02;14.68;;;;;;;;;;10020347;28;20145;-70
2023/02/10 10:28:08;;;;;;;21.35;15.02;;;;;;;;;;10010711;28;20050;-70
2023/02/10 10:33:15;;;;;;;24.98;15.00;;;;;;;;;;9998545;28;20130;-69
2023/02/10 10:38:24;;;;;;;24.58;16.73;;;;;;;;;;10003652;28;20521;-71
2023/02/10 10:43:23;;;;;;;26.85;21.15;;;;;;;;;;10014107;28;20049;-71
2023/02/10 10:48:24;;;;;;;34.25;24.10;;;;;;;;;;10011062;28;20130;-72
2023/02/10 10:53:26;;;;;;;28.85;22.30;;;;;;;;;;10005953;28;20494;-76
2023/02/10 10:58:48;;;;;;;23.70;18.02;;;;;;;;;;10002204;28;20050;-73
2023/02/10 11:03:42;;;;;;;24.65;17.80;;;;;;;;;;10027148;28;20062;-69
2023/02/10 11:08:41;;;;;;;21.77;17.50;;;;;;;;;;10019850;28;20046;-72
2023/02/10 11:13:37;;;;;;;22.92;16.40;;;;;;;;;;10020807;28;20046;-72
2023/02/10 11:18:30;;;;;;;25.02;16.75;;;;;;;;;;10004970;28;20057;-72
2023/02/10 11:23:26;;;;;;;24.17;16.65;;;;;;;;;;10011834;28;20053;-71
2023/02/10 11:28:21;;;;;;;23.33;17.95;;;;;;;;;;10000135;28;20054;-71
2023/02/10 11:33:26;;;;;;;28.80;18.00;;;;;;;;;;10005410;28;20430;-75
2023/02/10 11:38:22;;;;;;;21.58;16.95;;;;;;;;;;10015027;28;20060;-73
2023/02/10 11:43:16;;;;;;;24.65;19.02;;;;;;;;;;10018020;28;20041;-74
2023/02/10 11:48:18;;;;;;;27.40;19.13;;;;;;;;;;10013726;28;20082;-72
2023/02/10 11:53:23;;;;;;;27.48;20.55;;;;;;;;;;10006717;28;20050;-73
2023/02/10 12:03:53;;;;;;;21.45;16.30;;;;;;;;;;10008146;28;20034;-73
2023/02/10 12:08:55;;;;;;;25.42;19.35;;;;;;;;;;10007049;28;20482;-72
2023/02/10 12:14:25;;;;;;;24.85;17.52;;;;;;;;;;10029210;28;20132;-72
2023/02/10 12:19:44;;;;;;;28.92;16.95;;;;;;;;;;10023761;28;20061;-70
2023/02/10 12:24:52;;;;;;;32.15;18.58;;;;;;;;;;10014864;28;20478;-74
2023/02/10 12:30:03;;;;;;;26.90;19.35;;;;;;;;;;10022425;28;20104;-70
2023/02/10 12:35:29;;;;;;;26.45;20.05;;;;;;;;;;10018900;28;20074;-71
2023/02/10 12:40:43;;;;;;;26.10;19.83;;;;;;;;;;10024415;28;20049;-72
2023/02/10 12:45:43;;;;;;;29.15;19.75;;;;;;;;;;10006127;28;20384;-70
2023/02/10 12:50:54;;;;;;;26.38;18.58;;;;;;;;;;10007458;28;20077;-72
2023/02/10 12:56:09;;;;;;;28.05;19.45;;;;;;;;;;10021940;28;20526;-72
2023/02/10 13:01:16;;;;;;;30.58;20.80;;;;;;;;;;10023329;28;20062;-72
2023/02/10 13:06:35;;;;;;;29.08;18.98;;;;;;;;;;10024460;28;20141;-73
2023/02/10 13:11:41;;;;;;;28.48;20.33;;;;;;;;;;10017693;28;20398;-73
2023/02/10 13:16:34;;;;;;;27.42;17.73;;;;;;;;;;10027469;28;20046;-72
2023/02/10 13:21:29;;;;;;;29.73;20.63;;;;;;;;;;10025993;28;20042;-76
2023/02/10 13:26:31;;;;;;;24.50;19.25;;;;;;;;;;10012764;28;20054;-76
2023/02/10 13:31:27;;;;;;;25.08;19.02;;;;;;;;;;10014905;28;20431;-73
2023/02/10 13:36:27;;;;;;;27.00;19.90;;;;;;;;;;10003396;28;20050;-74
2023/02/10 13:41:41;;;;;;;30.63;20.10;;;;;;;;;;10014381;28;20145;-79
2023/02/10 13:46:35;;;;;;;30.25;21.77;;;;;;;;;;10025043;28;20053;-75
2023/02/10 13:51:34;;;;;;;27.20;19.98;;;;;;;;;;10017112;28;20399;-75
2023/02/10 13:56:30;;;;;;;30.80;21.60;;;;;;;;;;10026967;28;20054;-74
2023/02/10 14:01:48;;;;;;;27.35;20.38;;;;;;;;;;10024888;28;20046;-74
2023/02/10 14:06:44;;;;;;;28.42;20.90;;;;;;;;;;10019251;28;20045;-74
2023/02/10 14:11:42;;;;;;;31.50;20.73;;;;;;;;;;10019830;28;20138;-74
2023/02/10 14:16:40;;;;;;;29.33;18.83;;;;;;;;;;10017667;28;20123;-74
2023/02/10 14:21:40;;;;;;;29.23;19.08;;;;;;;;;;10023870;28;20301;-72
2023/02/10 14:26:35;;;;;;;33.50;21.65;;;;;;;;;;10023140;28;20045;-72
2023/02/10 14:31:39;;;;;;;28.55;19.45;;;;;;;;;;10018848;28;20130;-77
2023/02/10 14:36:33;;;;;;;27.13;18.13;;;;;;;;;;10026427;28;20410;-76
2023/02/10 14:41:45;;;;;;;26.80;19.83;;;;;;;;;;10023991;28;20454;-77
2023/02/10 14:46:39;;;;;;;28.48;19.00;;;;;;;;;;10017758;28;20057;-75
2023/02/10 14:51:38;;;;;;;26.70;20.38;;;;;;;;;;10009113;28;20061;-75
2023/02/10 14:56:31;;;;;;;32.10;21.33;;;;;;;;;;10023345;28;20502;-75
2023/02/10 15:01:23;;;;;;;33.60;20.05;;;;;;;;;;10023108;28;20093;-74
2023/02/10 15:06:19;;;;;;;29.25;19.35;;;;;;;;;;10024773;28;20054;-74
2023/02/10 15:12:10;;;;;;;25.33;19.70;;;;;;;;;;10014069;28;20054;-74
2023/02/10 15:16:32;;;;;;;;;;;;;;;;;;10018848;28;20149;-74
2023/02/10 15:21:36;;;;;;;32.53;20.77;;;;;;;;;;10012974;28;19925;-73
2023/02/10 15:26:30;;;;;;;29.95;21.45;;;;;;;;;;10020907;28;20059;-73
2023/02/10 15:31:27;;;;;;;46.25;27.35;;;;;;;;;;10020577;28;20053;-73
2023/02/10 15:36:34;;;;;;;35.83;23.52;;;;;;;;;;10020119;28;20054;-73
2023/02/10 15:41:30;;;;;;;30.75;21.98;;;;;;;;;;10018335;28;20133;-73
2023/02/10 15:46:25;;;;;;;32.83;22.23;;;;;;;;;;10021648;28;20085;-73
2023/02/10 15:51:25;;;;;;;29.92;19.60;;;;;;;;;;10027627;28;20063;-72
2023/02/10 15:56:19;;;;;;;27.50;20.88;;;;;;;;;;10027321;28;20537;-73
2023/02/10 16:01:12;;;;;;;23.55;17.65;;;;;;;;;;10027428;28;20040;-72
2023/02/10 16:06:06;;;;;;;28.30;22.17;;;;;;;;;;10022350;28;20042;-73
2023/02/10 16:11:00;;;;;;;29.67;19.92;;;;;;;;;;10025619;28;20057;-73
2023/02/10 16:15:53;;;;;;;32.55;21.80;;;;;;;;;;10022117;28;20057;-73
2023/02/10 16:20:47;;;;;;;30.17;21.33;;;;;;;;;;10024729;28;20046;-71
2023/02/10 16:25:40;;;;;;;32.65;21.33;;;;;;;;;;10023658;28;20133;-70
2023/02/10 16:30:33;;;;;;;27.90;20.10;;;;;;;;;;10011614;28;20045;-71
2023/02/10 16:35:27;;;;;;;29.95;19.83;;;;;;;;;;10027107;28;20058;-73
2023/02/10 16:40:24;;;;;;;35.47;20.75;;;;;;;;;;10027143;28;20058;-72
2023/02/10 16:45:17;;;;;;;30.90;22.67;;;;;;;;;;10028933;28;20057;-73
2023/02/10 16:50:29;;;;;;;38.40;24.60;;;;;;;;;;10022542;28;20061;-72
2023/02/10 16:55:22;;;;;;;38.85;21.48;;;;;;;;;;10029014;28;20470;-72
2023/02/10 17:00:18;;;;;;;31.08;22.75;;;;;;;;;;10028676;28;20502;-72
2023/02/10 17:05:12;;;;;;;33.55;21.50;;;;;;;;;;10028878;28;20050;-72
2023/02/10 17:10:07;;;;;;;34.22;23.65;;;;;;;;;;10027360;28;20133;-71
2023/02/10 17:15:01;;;;;;;34.42;24.40;;;;;;;;;;10026575;28;20042;-72
2023/02/10 17:19:57;;;;;;;34.92;22.85;;;;;;;;;;10028130;28;20065;-71
2023/02/10 17:24:51;;;;;;;39.42;26.13;;;;;;;;;;10026046;28;20030;-72
2023/02/10 17:29:45;;;;;;;39.75;25.70;;;;;;;;;;10023427;28;20073;-70
2023/02/10 17:34:38;;;;;;;47.63;34.40;;;;;;;;;;10028291;28;20049;-70
2023/02/10 17:44:29;;;;;;;50.47;33.75;;;;;;;;;;10009185;28;20058;-68
2023/02/10 17:49:24;;;;;;;50.92;35.20;;;;;;;;;;10007909;28;20065;-72
2023/02/10 17:54:18;;;;;;;51.20;33.75;;;;;;;;;;10014976;28;20813;-72
2023/02/10 17:59:11;;;;;;;47.85;34.50;;;;;;;;;;10011398;28;20699;-73
2023/02/10 18:04:04;;;;;;;59.65;35.05;;;;;;;;;;10017142;28;20145;-73
2023/02/10 18:09:00;;;;;;;53.08;37.72;;;;;;;;;;10005707;28;20487;-74
2023/02/10 18:13:56;;;;;;;61.60;39.08;;;;;;;;;;10005269;28;20450;-71
2023/02/10 18:18:49;;;;;;;52.67;36.08;;;;;;;;;;10005609;28;20498;-71
2023/02/10 18:23:42;;;;;;;58.38;38.80;;;;;;;;;;9997791;28;20046;-74
2023/02/10 18:28:35;;;;;;;55.92;38.03;;;;;;;;;;10000934;28;20060;-71
2023/02/10 18:33:29;;;;;;;62.65;40.47;;;;;;;;;;10009347;28;20049;-73
2023/02/10 18:38:23;;;;;;;60.65;39.10;;;;;;;;;;10012995;28;20042;-71
2023/02/10 18:43:16;;;;;;;72.05;48.65;;;;;;;;;;10010530;28;20490;-72
2023/02/10 18:48:13;;;;;;;72.90;51.92;;;;;;;;;;10003934;28;20076;-72
2023/02/10 18:53:05;;;;;;;59.10;40.33;;;;;;;;;;10002737;28;20054;-73
2023/02/10 18:58:01;;;;;;;61.38;38.38;;;;;;;;;;10016164;28;20052;-74
2023/02/10 19:02:55;;;;;;;50.67;35.63;;;;;;;;;;10012890;28;20049;-73
2023/02/10 19:07:49;;;;;;;51.97;38.03;;;;;;;;;;10012506;28;20498;-74
2023/02/10 19:12:42;;;;;;;58.22;39.40;;;;;;;;;;10003785;28;20507;-80
2023/02/10 19:17:36;;;;;;;57.92;37.72;;;;;;;;;;10005320;28;20134;-78
2023/02/10 19:22:28;;;;;;;57.85;38.58;;;;;;;;;;10002998;28;20038;-73
2023/02/10 19:27:21;;;;;;;53.10;38.15;;;;;;;;;;10009837;28;20073;-72
2023/02/10 19:32:15;;;;;;;52.28;38.40;;;;;;;;;;10012437;28;20049;-73
2023/02/10 19:37:10;;;;;;;57.00;37.55;;;;;;;;;;10009305;28;20112;-69
2023/02/10 19:42:04;;;;;;;54.45;41.28;;;;;;;;;;10015314;28;20062;-70
2023/02/10 19:46:57;;;;;;;57.08;41.15;;;;;;;;;;10018691;28;20477;-72
2023/02/10 19:51:51;;;;;;;54.85;38.08;;;;;;;;;;10024424;28;20085;-72
2023/02/10 19:56:45;;;;;;;55.80;41.30;;;;;;;;;;10011308;28;20462;-72
2023/02/10 20:01:38;;;;;;;53.03;34.95;;;;;;;;;;10019262;28;20050;-72
2023/02/10 20:06:36;;;;;;;53.22;37.08;;;;;;;;;;10014069;28;20052;-72
2023/02/10 20:11:30;;;;;;;55.33;36.73;;;;;;;;;;10023341;28;20514;-72
2023/02/10 20:16:24;;;;;;;51.90;35.90;;;;;;;;;;10004345;28;20057;-71
2023/02/10 20:21:17;;;;;;;49.10;35.47;;;;;;;;;;10008788;28;20046;-69
2023/02/10 20:26:13;;;;;;;56.25;40.45;;;;;;;;;;10012947;28;20388;-70
2023/02/10 20:31:12;;;;;;;54.95;36.80;;;;;;;;;;10015899;28;20085;-71
2023/02/10 20:36:08;;;;;;;50.08;36.92;;;;;;;;;;10002642;28;20471;-73
2023/02/10 20:41:04;;;;;;;57.53;40.10;;;;;;;;;;9997485;28;20055;-73
2023/02/10 20:45:57;;;;;;;52.45;33.53;;;;;;;;;;10007999;28;20061;-72
2023/02/10 20:50:50;;;;;;;53.05;34.38;;;;;;;;;;10007096;28;20065;-72
2023/02/10 20:55:45;;;;;;;55.90;41.10;;;;;;;;;;10017870;28;20050;-76
2023/02/10 21:00:39;;;;;;;49.85;36.42;;;;;;;;;;10011930;28;20050;-70
2023/02/10 21:05:33;;;;;;;44.00;32.10;;;;;;;;;;10015368;28;20050;-73
2023/02/10 21:10:26;;;;;;;50.42;35.85;;;;;;;;;;10018976;28;20410;-75
2023/02/10 21:15:20;;;;;;;48.60;33.92;;;;;;;;;;10021868;28;20474;-72
2023/02/10 21:20:15;;;;;;;42.15;32.08;;;;;;;;;;10014645;28;20503;-72
2023/02/10 21:25:09;;;;;;;45.92;35.03;;;;;;;;;;10020280;28;20101;-72
2023/02/10 21:30:05;;;;;;;45.88;33.85;;;;;;;;;;10017915;28;20521;-72
2023/02/10 21:34:59;;;;;;;47.65;34.03;;;;;;;;;;10013338;28;20140;-71
2023/02/10 21:39:53;;;;;;;45.95;32.70;;;;;;;;;;10009587;28;20498;-79
2023/02/10 21:44:47;;;;;;;47.13;33.45;;;;;;;;;;10018167;28;20052;-75
2023/02/10 21:49:42;;;;;;;54.33;36.53;;;;;;;;;;10002495;28;20058;-73
2023/02/10 21:54:37;;;;;;;44.55;32.20;;;;;;;;;;10002723;28;20069;-77
2023/02/10 21:59:30;;;;;;;51.42;37.22;;;;;;;;;;10005935;28;20074;-75
2023/02/10 22:04:23;;;;;;;48.97;33.83;;;;;;;;;;10019533;28;20050;-77
2023/02/10 22:09:17;;;;;;;54.53;34.92;;;;;;;;;;10009989;28;20132;-74
2023/02/10 22:14:12;;;;;;;58.97;40.13;;;;;;;;;;10005711;28;20141;-79
2023/02/10 22:19:05;;;;;;;60.42;35.90;;;;;;;;;;10007374;28;20085;-74
2023/02/10 22:23:59;;;;;;;49.58;33.70;;;;;;;;;;10011357;28;20074;-77
2023/02/10 22:28:52;;;;;;;38.00;25.67;;;;;;;;;;10013444;28;20080;-80
2023/02/10 22:33:50;;;;;;;32.83;24.20;;;;;;;;;;10017782;28;20426;-78
2023/02/10 22:38:44;;;;;;;33.47;25.98;;;;;;;;;;10014984;28;20042;-78
2023/02/10 22:43:38;;;;;;;38.92;28.90;;;;;;;;;;10019300;28;20681;-81
2023/02/10 22:48:31;;;;;;;35.13;24.52;;;;;;;;;;10023904;28;20064;-80
2023/02/10 22:53:25;;;;;;;33.75;24.70;;;;;;;;;;10023909;28;20120;-80
2023/02/10 22:58:19;;;;;;;31.65;24.73;;;;;;;;;;10025557;28;20050;-80
2023/02/10 23:03:12;;;;;;;33.90;22.13;;;;;;;;;;10025667;28;20061;-80
2023/02/10 23:08:06;;;;;;;33.25;21.80;;;;;;;;;;10025804;28;20054;-80
2023/02/10 23:12:59;;;;;;;35.20;24.17;;;;;;;;;;10024169;28;20060;-80
2023/02/10 23:17:52;;;;;;;33.45;23.20;;;;;;;;;;10025288;28;20053;-80
2023/02/10 23:22:44;;;;;;;31.50;22.42;;;;;;;;;;10024309;28;20157;-80
2023/02/10 23:27:41;;;;;;;33.30;23.55;;;;;;;;;;10024745;28;20050;-80
2023/02/10 23:32:35;;;;;;;34.42;22.70;;;;;;;;;;10024971;28;20045;-80
2023/02/10 23:37:29;;;;;;;35.40;25.10;;;;;;;;;;10025518;28;20057;-80
2023/02/10 23:42:23;;;;;;;33.10;23.08;;;;;;;;;;10024599;28;20053;-80
2023/02/10 23:47:17;;;;;;;31.70;23.38;;;;;;;;;;10024536;28;20062;-80
2023/02/10 23:52:10;;;;;;;31.33;23.23;;;;;;;;;;10024698;28;20423;-80
2023/02/10 23:57:03;;;;;;;34.50;24.33;;;;;;;;;;10016234;28;20042;-80
